sensor_id;sensor_type;location;lat;lon;timestamp;P1;durP1;ratioP1;P2;durP2;ratioP2
21152;SDS011;10734;44.792;20.482;2022-11-12T00:00:50;65.72;;;38.70;;
21152;SDS011;10734;44.792;20.482;2022-11-12T00:03:17;67.22;;;37.78;;
21152;SDS011;10734;44.792;20.482;2022-11-12T00:05:45;65.18;;;38.08;;
21152;SDS011;10734;44.792;20.482;2022-11-12T00:08:12;67.13;;;39.05;;
21152;SDS011;10734;44.792;20.482;2022-11-12T00:10:39;77.00;;;38.70;;
21152;SDS011;10734;44.792;20.482;2022-11-12T00:13:05;67.75;;;39.40;;
21152;SDS011;10734;44.792;20.482;2022-11-12T00:15:32;68.70;;;38.22;;
21152;SDS011;10734;44.792;20.482;2022-11-12T00:17:59;63.30;;;39.03;;
21152;SDS011;10734;44.792;20.482;2022-11-12T00:20:25;78.65;;;41.80;;
21152;SDS011;10734;44.792;20.482;2022-11-12T00:22:52;76.90;;;42.10;;
21152;SDS011;10734;44.792;20.482;2022-11-12T00:25:20;72.30;;;40.60;;
21152;SDS011;10734;44.792;20.482;2022-11-12T00:27:47;72.80;;;39.90;;
21152;SDS011;10734;44.792;20.482;2022-11-12T00:30:13;68.32;;;39.33;;
21152;SDS011;10734;44.792;20.482;2022-11-12T00:32:40;80.90;;;42.00;;
21152;SDS011;10734;44.792;20.482;2022-11-12T00:35:07;71.97;;;39.95;;
21152;SDS011;10734;44.792;20.482;2022-11-12T00:37:39;81.35;;;43.03;;
21152;SDS011;10734;44.792;20.482;2022-11-12T00:40:06;74.70;;;41.17;;
21152;SDS011;10734;44.792;20.482;2022-11-12T00:42:33;74.75;;;39.92;;
21152;SDS011;10734;44.792;20.482;2022-11-12T00:44:59;78.90;;;43.05;;
21152;SDS011;10734;44.792;20.482;2022-11-12T00:47:26;74.40;;;40.75;;
21152;SDS011;10734;44.792;20.482;2022-11-12T00:49:53;79.53;;;43.28;;
21152;SDS011;10734;44.792;20.482;2022-11-12T00:52:19;76.70;;;41.55;;
21152;SDS011;10734;44.792;20.482;2022-11-12T00:54:46;82.70;;;42.50;;
21152;SDS011;10734;44.792;20.482;2022-11-12T00:57:13;78.97;;;44.85;;
21152;SDS011;10734;44.792;20.482;2022-11-12T00:59:40;69.43;;;41.00;;
21152;SDS011;10734;44.792;20.482;2022-11-12T01:02:06;67.20;;;40.20;;
21152;SDS011;10734;44.792;20.482;2022-11-12T01:04:33;75.78;;;43.45;;
21152;SDS011;10734;44.792;20.482;2022-11-12T01:07:00;69.80;;;41.85;;
21152;SDS011;10734;44.792;20.482;2022-11-12T01:09:26;75.55;;;43.45;;
21152;SDS011;10734;44.792;20.482;2022-11-12T01:11:53;78.10;;;42.58;;
21152;SDS011;10734;44.792;20.482;2022-11-12T01:14:20;80.85;;;42.38;;
21152;SDS011;10734;44.792;20.482;2022-11-12T01:16:46;81.38;;;43.78;;
21152;SDS011;10734;44.792;20.482;2022-11-12T01:19:13;76.13;;;42.05;;
21152;SDS011;10734;44.792;20.482;2022-11-12T01:21:41;78.05;;;42.63;;
21152;SDS011;10734;44.792;20.482;2022-11-12T01:24:09;80.70;;;44.50;;
21152;SDS011;10734;44.792;20.482;2022-11-12T01:26:36;76.38;;;43.35;;
21152;SDS011;10734;44.792;20.482;2022-11-12T01:29:03;75.78;;;43.60;;
21152;SDS011;10734;44.792;20.482;2022-11-12T01:31:32;75.20;;;44.20;;
21152;SDS011;10734;44.792;20.482;2022-11-12T01:34:01;72.60;;;40.38;;
21152;SDS011;10734;44.792;20.482;2022-11-12T01:36:32;79.00;;;43.55;;
21152;SDS011;10734;44.792;20.482;2022-11-12T01:39:02;71.68;;;41.45;;
21152;SDS011;10734;44.792;20.482;2022-11-12T01:41:34;71.45;;;40.95;;
21152;SDS011;10734;44.792;20.482;2022-11-12T01:44:16;74.15;;;42.80;;
21152;SDS011;10734;44.792;20.482;2022-11-12T01:49:22;73.15;;;41.03;;
21152;SDS011;10734;44.792;20.482;2022-11-12T01:51:58;72.57;;;42.08;;
21152;SDS011;10734;44.792;20.482;2022-11-12T01:54:35;78.68;;;43.45;;
21152;SDS011;10734;44.792;20.482;2022-11-12T01:57:03;66.38;;;41.78;;
21152;SDS011;10734;44.792;20.482;2022-11-12T01:59:32;72.57;;;43.25;;
21152;SDS011;10734;44.792;20.482;2022-11-12T02:02:05;77.00;;;42.17;;
21152;SDS011;10734;44.792;20.482;2022-11-12T02:04:32;65.03;;;39.95;;
21152;SDS011;10734;44.792;20.482;2022-11-12T02:07:01;74.20;;;43.20;;
21152;SDS011;10734;44.792;20.482;2022-11-12T02:09:29;77.47;;;45.17;;
21152;SDS011;10734;44.792;20.482;2022-11-12T02:11:57;73.50;;;43.13;;
21152;SDS011;10734;44.792;20.482;2022-11-12T02:14:25;76.28;;;43.63;;
21152;SDS011;10734;44.792;20.482;2022-11-12T02:16:52;71.88;;;41.47;;
21152;SDS011;10734;44.792;20.482;2022-11-12T02:19:19;80.18;;;44.30;;
21152;SDS011;10734;44.792;20.482;2022-11-12T02:21:46;74.28;;;41.60;;
21152;SDS011;10734;44.792;20.482;2022-11-12T02:26:40;71.95;;;41.75;;
21152;SDS011;10734;44.792;20.482;2022-11-12T02:29:11;72.78;;;41.60;;
21152;SDS011;10734;44.792;20.482;2022-11-12T02:31:37;70.68;;;40.58;;
21152;SDS011;10734;44.792;20.482;2022-11-12T02:34:04;71.63;;;41.65;;
21152;SDS011;10734;44.792;20.482;2022-11-12T02:36:31;67.95;;;40.45;;
21152;SDS011;10734;44.792;20.482;2022-11-12T02:38:57;63.85;;;41.17;;
21152;SDS011;10734;44.792;20.482;2022-11-12T02:41:24;72.82;;;43.17;;
21152;SDS011;10734;44.792;20.482;2022-11-12T02:43:51;69.65;;;43.10;;
21152;SDS011;10734;44.792;20.482;2022-11-12T02:46:17;73.65;;;42.53;;
21152;SDS011;10734;44.792;20.482;2022-11-12T02:48:44;67.75;;;40.38;;
21152;SDS011;10734;44.792;20.482;2022-11-12T02:51:10;72.10;;;40.25;;
21152;SDS011;10734;44.792;20.482;2022-11-12T02:53:37;65.38;;;39.00;;
21152;SDS011;10734;44.792;20.482;2022-11-12T02:56:04;69.35;;;41.03;;
21152;SDS011;10734;44.792;20.482;2022-11-12T02:58:31;88.85;;;42.85;;
21152;SDS011;10734;44.792;20.482;2022-11-12T03:00:57;73.70;;;42.15;;
21152;SDS011;10734;44.792;20.482;2022-11-12T03:03:24;64.43;;;39.90;;
21152;SDS011;10734;44.792;20.482;2022-11-12T03:05:55;71.95;;;42.22;;
21152;SDS011;10734;44.792;20.482;2022-11-12T03:08:23;76.60;;;43.58;;
21152;SDS011;10734;44.792;20.482;2022-11-12T03:10:51;68.40;;;40.47;;
21152;SDS011;10734;44.792;20.482;2022-11-12T03:13:18;66.57;;;40.28;;
21152;SDS011;10734;44.792;20.482;2022-11-12T03:15:46;72.22;;;39.00;;
21152;SDS011;10734;44.792;20.482;2022-11-12T03:18:13;62.78;;;40.95;;
21152;SDS011;10734;44.792;20.482;2022-11-12T03:20:40;68.90;;;39.58;;
21152;SDS011;10734;44.792;20.482;2022-11-12T03:23:07;68.38;;;40.13;;
21152;SDS011;10734;44.792;20.482;2022-11-12T03:25:36;69.57;;;40.08;;
21152;SDS011;10734;44.792;20.482;2022-11-12T03:28:07;64.93;;;38.30;;
21152;SDS011;10734;44.792;20.482;2022-11-12T03:30:36;68.45;;;40.33;;
21152;SDS011;10734;44.792;20.482;2022-11-12T03:33:05;65.72;;;37.72;;
21152;SDS011;10734;44.792;20.482;2022-11-12T03:35:32;62.78;;;39.08;;
21152;SDS011;10734;44.792;20.482;2022-11-12T03:37:59;74.03;;;39.38;;
21152;SDS011;10734;44.792;20.482;2022-11-12T03:40:27;71.45;;;41.20;;
21152;SDS011;10734;44.792;20.482;2022-11-12T03:42:54;65.45;;;41.10;;
21152;SDS011;10734;44.792;20.482;2022-11-12T03:45:22;68.22;;;40.95;;
21152;SDS011;10734;44.792;20.482;2022-11-12T03:47:49;74.57;;;43.40;;
21152;SDS011;10734;44.792;20.482;2022-11-12T03:50:17;75.07;;;43.25;;
21152;SDS011;10734;44.792;20.482;2022-11-12T03:52:44;63.38;;;40.97;;
21152;SDS011;10734;44.792;20.482;2022-11-12T03:55:11;74.88;;;41.70;;
21152;SDS011;10734;44.792;20.482;2022-11-12T03:57:38;68.38;;;40.55;;
21152;SDS011;10734;44.792;20.482;2022-11-12T04:00:07;67.38;;;40.75;;
21152;SDS011;10734;44.792;20.482;2022-11-12T04:02:33;69.47;;;41.88;;
21152;SDS011;10734;44.792;20.482;2022-11-12T04:05:00;60.97;;;38.47;;
21152;SDS011;10734;44.792;20.482;2022-11-12T04:07:47;67.78;;;39.70;;
21152;SDS011;10734;44.792;20.482;2022-11-12T04:10:32;62.05;;;40.15;;
21152;SDS011;10734;44.792;20.482;2022-11-12T04:12:59;65.22;;;40.30;;
21152;SDS011;10734;44.792;20.482;2022-11-12T04:15:44;60.13;;;36.63;;
21152;SDS011;10734;44.792;20.482;2022-11-12T04:18:10;62.63;;;38.95;;
21152;SDS011;10734;44.792;20.482;2022-11-12T04:20:55;68.35;;;39.00;;
21152;SDS011;10734;44.792;20.482;2022-11-12T04:23:40;59.85;;;39.38;;
21152;SDS011;10734;44.792;20.482;2022-11-12T04:26:07;72.43;;;41.92;;
21152;SDS011;10734;44.792;20.482;2022-11-12T04:28:48;51.80;;;29.95;;
21152;SDS011;10734;44.792;20.482;2022-11-12T04:31:34;65.60;;;38.88;;
21152;SDS011;10734;44.792;20.482;2022-11-12T04:34:00;71.25;;;41.58;;
21152;SDS011;10734;44.792;20.482;2022-11-12T04:36:47;66.22;;;38.78;;
21152;SDS011;10734;44.792;20.482;2022-11-12T04:39:13;65.70;;;40.08;;
21152;SDS011;10734;44.792;20.482;2022-11-12T04:41:39;70.35;;;40.45;;
21152;SDS011;10734;44.792;20.482;2022-11-12T04:44:24;69.38;;;40.92;;
21152;SDS011;10734;44.792;20.482;2022-11-12T04:47:09;73.38;;;39.88;;
21152;SDS011;10734;44.792;20.482;2022-11-12T04:49:35;68.25;;;39.75;;
21152;SDS011;10734;44.792;20.482;2022-11-12T04:52:02;79.07;;;44.25;;
21152;SDS011;10734;44.792;20.482;2022-11-12T04:54:31;68.07;;;42.17;;
21152;SDS011;10734;44.792;20.482;2022-11-12T04:56:58;76.85;;;44.15;;
21152;SDS011;10734;44.792;20.482;2022-11-12T04:59:25;67.57;;;40.40;;
21152;SDS011;10734;44.792;20.482;2022-11-12T05:01:51;79.10;;;43.03;;
21152;SDS011;10734;44.792;20.482;2022-11-12T05:04:18;66.05;;;41.45;;
21152;SDS011;10734;44.792;20.482;2022-11-12T05:06:44;75.85;;;42.97;;
21152;SDS011;10734;44.792;20.482;2022-11-12T05:09:17;72.07;;;45.05;;
21152;SDS011;10734;44.792;20.482;2022-11-12T05:11:44;73.03;;;43.33;;
21152;SDS011;10734;44.792;20.482;2022-11-12T05:14:12;76.35;;;44.22;;
21152;SDS011;10734;44.792;20.482;2022-11-12T05:16:39;79.03;;;43.75;;
21152;SDS011;10734;44.792;20.482;2022-11-12T05:19:05;71.90;;;44.72;;
21152;SDS011;10734;44.792;20.482;2022-11-12T05:21:32;71.88;;;43.85;;
21152;SDS011;10734;44.792;20.482;2022-11-12T05:24:17;68.97;;;42.03;;
21152;SDS011;10734;44.792;20.482;2022-11-12T05:27:04;69.55;;;41.78;;
21152;SDS011;10734;44.792;20.482;2022-11-12T05:29:31;68.53;;;42.08;;
21152;SDS011;10734;44.792;20.482;2022-11-12T05:31:58;62.58;;;40.00;;
21152;SDS011;10734;44.792;20.482;2022-11-12T05:34:24;70.18;;;43.13;;
21152;SDS011;10734;44.792;20.482;2022-11-12T05:36:51;65.93;;;39.75;;
21152;SDS011;10734;44.792;20.482;2022-11-12T05:39:17;68.65;;;41.33;;
21152;SDS011;10734;44.792;20.482;2022-11-12T05:41:44;66.63;;;40.85;;
21152;SDS011;10734;44.792;20.482;2022-11-12T05:44:30;69.65;;;41.80;;
21152;SDS011;10734;44.792;20.482;2022-11-12T05:46:57;71.80;;;42.58;;
21152;SDS011;10734;44.792;20.482;2022-11-12T05:49:23;65.47;;;41.05;;
21152;SDS011;10734;44.792;20.482;2022-11-12T05:51:50;63.88;;;38.72;;
21152;SDS011;10734;44.792;20.482;2022-11-12T05:54:17;67.38;;;41.75;;
21152;SDS011;10734;44.792;20.482;2022-11-12T05:56:43;60.60;;;37.15;;
21152;SDS011;10734;44.792;20.482;2022-11-12T05:59:11;66.53;;;39.83;;
21152;SDS011;10734;44.792;20.482;2022-11-12T06:01:38;66.70;;;40.85;;
21152;SDS011;10734;44.792;20.482;2022-11-12T06:04:10;65.87;;;37.80;;
21152;SDS011;10734;44.792;20.482;2022-11-12T06:06:37;60.33;;;37.72;;
21152;SDS011;10734;44.792;20.482;2022-11-12T06:09:03;71.30;;;41.20;;
21152;SDS011;10734;44.792;20.482;2022-11-12T06:11:30;70.47;;;41.65;;
21152;SDS011;10734;44.792;20.482;2022-11-12T06:13:56;64.88;;;39.97;;
21152;SDS011;10734;44.792;20.482;2022-11-12T06:16:23;63.38;;;38.60;;
21152;SDS011;10734;44.792;20.482;2022-11-12T06:18:50;80.03;;;40.50;;
21152;SDS011;10734;44.792;20.482;2022-11-12T06:21:16;59.97;;;36.92;;
21152;SDS011;10734;44.792;20.482;2022-11-12T06:23:47;64.65;;;38.72;;
21152;SDS011;10734;44.792;20.482;2022-11-12T06:26:16;66.03;;;40.80;;
21152;SDS011;10734;44.792;20.482;2022-11-12T06:28:42;66.13;;;39.20;;
21152;SDS011;10734;44.792;20.482;2022-11-12T06:31:09;62.05;;;37.28;;
21152;SDS011;10734;44.792;20.482;2022-11-12T06:33:35;59.90;;;36.47;;
21152;SDS011;10734;44.792;20.482;2022-11-12T06:36:03;58.15;;;36.75;;
21152;SDS011;10734;44.792;20.482;2022-11-12T06:38:33;59.80;;;35.47;;
21152;SDS011;10734;44.792;20.482;2022-11-12T06:41:00;54.35;;;35.08;;
21152;SDS011;10734;44.792;20.482;2022-11-12T06:43:27;46.35;;;32.42;;
21152;SDS011;10734;44.792;20.482;2022-11-12T06:45:53;52.53;;;33.45;;
21152;SDS011;10734;44.792;20.482;2022-11-12T06:48:20;55.42;;;34.70;;
21152;SDS011;10734;44.792;20.482;2022-11-12T06:50:46;55.75;;;34.35;;
21152;SDS011;10734;44.792;20.482;2022-11-12T06:53:12;55.50;;;32.83;;
21152;SDS011;10734;44.792;20.482;2022-11-12T06:55:39;53.58;;;33.10;;
21152;SDS011;10734;44.792;20.482;2022-11-12T06:58:05;57.08;;;35.75;;
21152;SDS011;10734;44.792;20.482;2022-11-12T07:00:32;56.70;;;35.03;;
21152;SDS011;10734;44.792;20.482;2022-11-12T07:02:58;67.32;;;35.63;;
21152;SDS011;10734;44.792;20.482;2022-11-12T07:05:25;51.88;;;32.17;;
21152;SDS011;10734;44.792;20.482;2022-11-12T07:07:53;54.10;;;32.38;;
21152;SDS011;10734;44.792;20.482;2022-11-12T07:10:20;50.47;;;31.45;;
21152;SDS011;10734;44.792;20.482;2022-11-12T07:12:48;50.42;;;32.95;;
21152;SDS011;10734;44.792;20.482;2022-11-12T07:15:18;47.28;;;28.95;;
21152;SDS011;10734;44.792;20.482;2022-11-12T07:17:45;52.60;;;33.22;;
21152;SDS011;10734;44.792;20.482;2022-11-12T07:20:12;50.20;;;31.15;;
21152;SDS011;10734;44.792;20.482;2022-11-12T07:22:38;54.03;;;33.63;;
21152;SDS011;10734;44.792;20.482;2022-11-12T07:25:05;51.33;;;31.40;;
21152;SDS011;10734;44.792;20.482;2022-11-12T07:27:31;47.85;;;30.33;;
21152;SDS011;10734;44.792;20.482;2022-11-12T07:29:58;48.22;;;30.20;;
21152;SDS011;10734;44.792;20.482;2022-11-12T07:32:24;46.65;;;30.23;;
21152;SDS011;10734;44.792;20.482;2022-11-12T07:34:51;46.15;;;31.58;;
21152;SDS011;10734;44.792;20.482;2022-11-12T07:37:18;48.63;;;29.77;;
21152;SDS011;10734;44.792;20.482;2022-11-12T07:39:45;48.00;;;29.60;;
21152;SDS011;10734;44.792;20.482;2022-11-12T07:42:11;44.33;;;28.30;;
21152;SDS011;10734;44.792;20.482;2022-11-12T07:44:38;43.63;;;28.77;;
21152;SDS011;10734;44.792;20.482;2022-11-12T07:47:05;43.95;;;26.55;;
21152;SDS011;10734;44.792;20.482;2022-11-12T07:49:31;50.95;;;28.65;;
21152;SDS011;10734;44.792;20.482;2022-11-12T07:51:58;44.63;;;25.90;;
21152;SDS011;10734;44.792;20.482;2022-11-12T07:54:24;44.25;;;28.08;;
21152;SDS011;10734;44.792;20.482;2022-11-12T07:56:51;42.92;;;27.23;;
21152;SDS011;10734;44.792;20.482;2022-11-12T07:59:18;35.15;;;24.27;;
21152;SDS011;10734;44.792;20.482;2022-11-12T08:01:44;37.08;;;25.15;;
21152;SDS011;10734;44.792;20.482;2022-11-12T08:04:11;39.03;;;24.50;;
21152;SDS011;10734;44.792;20.482;2022-11-12T08:06:39;38.70;;;23.05;;
21152;SDS011;10734;44.792;20.482;2022-11-12T08:09:06;39.90;;;25.10;;
21152;SDS011;10734;44.792;20.482;2022-11-12T08:11:33;41.70;;;26.73;;
21152;SDS011;10734;44.792;20.482;2022-11-12T08:14:00;45.40;;;25.75;;
21152;SDS011;10734;44.792;20.482;2022-11-12T08:16:27;38.92;;;26.20;;
21152;SDS011;10734;44.792;20.482;2022-11-12T08:18:55;39.38;;;24.02;;
21152;SDS011;10734;44.792;20.482;2022-11-12T08:21:21;34.40;;;22.48;;
21152;SDS011;10734;44.792;20.482;2022-11-12T08:23:48;33.97;;;23.92;;
21152;SDS011;10734;44.792;20.482;2022-11-12T08:26:16;34.17;;;22.70;;
21152;SDS011;10734;44.792;20.482;2022-11-12T08:28:43;35.58;;;25.08;;
21152;SDS011;10734;44.792;20.482;2022-11-12T08:33:38;39.92;;;24.55;;
21152;SDS011;10734;44.792;20.482;2022-11-12T08:36:06;43.47;;;27.17;;
21152;SDS011;10734;44.792;20.482;2022-11-12T08:38:35;42.75;;;25.83;;
21152;SDS011;10734;44.792;20.482;2022-11-12T08:41:04;42.72;;;25.40;;
21152;SDS011;10734;44.792;20.482;2022-11-12T08:43:35;36.72;;;24.75;;
21152;SDS011;10734;44.792;20.482;2022-11-12T08:46:02;44.33;;;27.17;;
21152;SDS011;10734;44.792;20.482;2022-11-12T08:48:30;34.13;;;24.30;;
21152;SDS011;10734;44.792;20.482;2022-11-12T08:50:59;48.60;;;26.42;;
21152;SDS011;10734;44.792;20.482;2022-11-12T08:53:26;38.65;;;22.67;;
21152;SDS011;10734;44.792;20.482;2022-11-12T08:55:54;35.20;;;22.58;;
21152;SDS011;10734;44.792;20.482;2022-11-12T08:58:22;33.08;;;23.05;;
21152;SDS011;10734;44.792;20.482;2022-11-12T09:00:50;34.40;;;21.23;;
21152;SDS011;10734;44.792;20.482;2022-11-12T09:03:19;36.78;;;22.13;;
21152;SDS011;10734;44.792;20.482;2022-11-12T09:05:47;35.40;;;23.83;;
21152;SDS011;10734;44.792;20.482;2022-11-12T09:08:18;40.00;;;25.63;;
21152;SDS011;10734;44.792;20.482;2022-11-12T09:10:48;35.72;;;23.27;;
21152;SDS011;10734;44.792;20.482;2022-11-12T09:13:15;39.72;;;25.25;;
21152;SDS011;10734;44.792;20.482;2022-11-12T09:15:45;33.03;;;22.92;;
21152;SDS011;10734;44.792;20.482;2022-11-12T09:18:13;30.90;;;20.98;;
21152;SDS011;10734;44.792;20.482;2022-11-12T09:20:42;30.85;;;19.02;;
21152;SDS011;10734;44.792;20.482;2022-11-12T09:23:10;26.90;;;17.38;;
21152;SDS011;10734;44.792;20.482;2022-11-12T09:25:39;31.20;;;18.90;;
21152;SDS011;10734;44.792;20.482;2022-11-12T09:28:10;25.90;;;18.20;;
21152;SDS011;10734;44.792;20.482;2022-11-12T09:30:45;30.85;;;18.00;;
21152;SDS011;10734;44.792;20.482;2022-11-12T09:33:14;28.95;;;17.95;;
21152;SDS011;10734;44.792;20.482;2022-11-12T09:35:42;29.98;;;19.92;;
21152;SDS011;10734;44.792;20.482;2022-11-12T09:38:10;28.75;;;19.20;;
21152;SDS011;10734;44.792;20.482;2022-11-12T09:45:56;33.78;;;23.15;;
21152;SDS011;10734;44.792;20.482;2022-11-12T09:48:46;36.22;;;22.80;;
21152;SDS011;10734;44.792;20.482;2022-11-12T09:51:29;31.45;;;23.10;;
21152;SDS011;10734;44.792;20.482;2022-11-12T09:54:01;29.75;;;20.50;;
21152;SDS011;10734;44.792;20.482;2022-11-12T09:56:37;41.72;;;23.15;;
21152;SDS011;10734;44.792;20.482;2022-11-12T09:59:07;35.60;;;22.05;;
21152;SDS011;10734;44.792;20.482;2022-11-12T10:01:43;34.10;;;22.30;;
21152;SDS011;10734;44.792;20.482;2022-11-12T10:10:14;33.35;;;23.40;;
21152;SDS011;10734;44.792;20.482;2022-11-12T10:15:30;44.00;;;24.27;;
21152;SDS011;10734;44.792;20.482;2022-11-12T10:21:33;32.38;;;22.65;;
21152;SDS011;10734;44.792;20.482;2022-11-12T10:24:07;38.70;;;25.25;;
21152;SDS011;10734;44.792;20.482;2022-11-12T10:26:37;32.60;;;23.00;;
21152;SDS011;10734;44.792;20.482;2022-11-12T10:31:49;37.35;;;24.67;;
21152;SDS011;10734;44.792;20.482;2022-11-12T10:34:17;40.17;;;23.60;;
21152;SDS011;10734;44.792;20.482;2022-11-12T10:36:49;35.60;;;24.60;;
21152;SDS011;10734;44.792;20.482;2022-11-12T10:39:34;32.95;;;22.48;;
21152;SDS011;10734;44.792;20.482;2022-11-12T10:42:03;26.98;;;20.70;;
21152;SDS011;10734;44.792;20.482;2022-11-12T10:44:36;29.35;;;19.17;;
21152;SDS011;10734;44.792;20.482;2022-11-12T10:52:28;23.67;;;16.17;;
21152;SDS011;10734;44.792;20.482;2022-11-12T10:55:02;21.00;;;12.68;;
21152;SDS011;10734;44.792;20.482;2022-11-12T10:57:43;23.08;;;15.38;;
21152;SDS011;10734;44.792;20.482;2022-11-12T11:02:52;26.98;;;15.15;;
21152;SDS011;10734;44.792;20.482;2022-11-12T11:05:33;18.25;;;13.52;;
21152;SDS011;10734;44.792;20.482;2022-11-12T11:08:01;18.57;;;15.20;;
21152;SDS011;10734;44.792;20.482;2022-11-12T11:10:32;19.70;;;14.63;;
21152;SDS011;10734;44.792;20.482;2022-11-12T11:16:01;21.50;;;14.07;;
21152;SDS011;10734;44.792;20.482;2022-11-12T11:18:31;19.95;;;13.93;;
21152;SDS011;10734;44.792;20.482;2022-11-12T11:26:25;12.07;;;8.77;;
21152;SDS011;10734;44.792;20.482;2022-11-12T11:32:10;13.75;;;10.10;;
21152;SDS011;10734;44.792;20.482;2022-11-12T11:35:00;10.98;;;8.18;;
21152;SDS011;10734;44.792;20.482;2022-11-12T12:03:23;17.85;;;11.45;;
21152;SDS011;10734;44.792;20.482;2022-11-12T12:06:07;19.48;;;12.63;;
21152;SDS011;10734;44.792;20.482;2022-11-12T12:14:28;17.98;;;12.75;;
21152;SDS011;10734;44.792;20.482;2022-11-12T12:17:03;14.57;;;9.88;;
21152;SDS011;10734;44.792;20.482;2022-11-12T12:19:49;11.90;;;8.23;;
21152;SDS011;10734;44.792;20.482;2022-11-12T12:22:34;10.75;;;8.07;;
21152;SDS011;10734;44.792;20.482;2022-11-12T12:25:12;10.77;;;7.72;;
21152;SDS011;10734;44.792;20.482;2022-11-12T12:27:50;15.02;;;9.15;;
21152;SDS011;10734;44.792;20.482;2022-11-12T12:30:36;13.77;;;9.57;;
21152;SDS011;10734;44.792;20.482;2022-11-12T12:38:37;17.63;;;13.07;;
21152;SDS011;10734;44.792;20.482;2022-11-12T12:41:20;19.30;;;12.50;;
21152;SDS011;10734;44.792;20.482;2022-11-12T12:43:56;21.55;;;13.38;;
21152;SDS011;10734;44.792;20.482;2022-11-12T12:46:28;18.13;;;12.15;;
21152;SDS011;10734;44.792;20.482;2022-11-12T12:49:02;15.82;;;11.02;;
21152;SDS011;10734;44.792;20.482;2022-11-12T12:51:32;16.65;;;11.68;;
21152;SDS011;10734;44.792;20.482;2022-11-12T12:54:01;17.98;;;11.52;;
21152;SDS011;10734;44.792;20.482;2022-11-12T12:58:54;12.15;;;8.77;;
21152;SDS011;10734;44.792;20.482;2022-11-12T13:03:49;11.57;;;9.05;;
21152;SDS011;10734;44.792;20.482;2022-11-12T13:30:54;24.40;;;13.68;;
21152;SDS011;10734;44.792;20.482;2022-11-12T13:32:56;18.88;;;12.00;;
21152;SDS011;10734;44.792;20.482;2022-11-12T13:35:25;17.05;;;12.10;;
21152;SDS011;10734;44.792;20.482;2022-11-12T13:40:50;25.00;;;13.93;;
21152;SDS011;10734;44.792;20.482;2022-11-12T13:46:08;20.17;;;14.05;;
21152;SDS011;10734;44.792;20.482;2022-11-12T13:48:57;18.42;;;11.30;;
21152;SDS011;10734;44.792;20.482;2022-11-12T13:51:41;19.08;;;12.77;;
21152;SDS011;10734;44.792;20.482;2022-11-12T13:54:23;21.10;;;12.38;;
21152;SDS011;10734;44.792;20.482;2022-11-12T13:56:54;21.67;;;13.25;;
21152;SDS011;10734;44.792;20.482;2022-11-12T13:59:24;17.80;;;12.90;;
21152;SDS011;10734;44.792;20.482;2022-11-12T14:01:51;18.42;;;11.55;;
21152;SDS011;10734;44.792;20.482;2022-11-12T14:04:20;18.38;;;12.27;;
21152;SDS011;10734;44.792;20.482;2022-11-12T14:06:49;17.83;;;11.23;;
21152;SDS011;10734;44.792;20.482;2022-11-12T14:22:51;24.55;;;13.20;;
21152;SDS011;10734;44.792;20.482;2022-11-12T14:25:23;22.98;;;12.32;;
21152;SDS011;10734;44.792;20.482;2022-11-12T14:27:52;32.70;;;18.15;;
21152;SDS011;10734;44.792;20.482;2022-11-12T14:30:24;58.50;;;31.15;;
21152;SDS011;10734;44.792;20.482;2022-11-12T14:32:58;37.58;;;20.25;;
21152;SDS011;10734;44.792;20.482;2022-11-12T14:35:36;25.67;;;16.02;;
21152;SDS011;10734;44.792;20.482;2022-11-12T14:40:52;20.60;;;12.18;;
21152;SDS011;10734;44.792;20.482;2022-11-12T14:43:21;19.38;;;12.02;;
21152;SDS011;10734;44.792;20.482;2022-11-12T14:45:53;21.70;;;10.88;;
21152;SDS011;10734;44.792;20.482;2022-11-12T14:48:21;15.80;;;10.20;;
21152;SDS011;10734;44.792;20.482;2022-11-12T14:50:49;20.10;;;9.45;;
21152;SDS011;10734;44.792;20.482;2022-11-12T14:53:22;18.90;;;9.38;;
21152;SDS011;10734;44.792;20.482;2022-11-12T14:55:55;15.18;;;8.90;;
21152;SDS011;10734;44.792;20.482;2022-11-12T14:58:24;19.58;;;9.82;;
21152;SDS011;10734;44.792;20.482;2022-11-12T15:00:53;15.90;;;10.35;;
21152;SDS011;10734;44.792;20.482;2022-11-12T15:03:22;16.13;;;9.98;;
21152;SDS011;10734;44.792;20.482;2022-11-12T15:05:55;22.57;;;12.77;;
21152;SDS011;10734;44.792;20.482;2022-11-12T15:08:27;23.77;;;12.45;;
21152;SDS011;10734;44.792;20.482;2022-11-12T15:13:46;16.90;;;10.60;;
21152;SDS011;10734;44.792;20.482;2022-11-12T15:16:18;20.13;;;9.85;;
21152;SDS011;10734;44.792;20.482;2022-11-12T15:21:47;16.85;;;8.85;;
21152;SDS011;10734;44.792;20.482;2022-11-12T15:24:17;15.00;;;8.80;;
21152;SDS011;10734;44.792;20.482;2022-11-12T15:26:47;35.30;;;18.63;;
21152;SDS011;10734;44.792;20.482;2022-11-12T15:29:26;26.35;;;13.85;;
21152;SDS011;10734;44.792;20.482;2022-11-12T15:34:49;19.80;;;11.20;;
21152;SDS011;10734;44.792;20.482;2022-11-12T15:39:47;17.95;;;10.38;;
21152;SDS011;10734;44.792;20.482;2022-11-12T15:42:20;19.02;;;10.07;;
21152;SDS011;10734;44.792;20.482;2022-11-12T15:45:02;20.52;;;11.70;;
21152;SDS011;10734;44.792;20.482;2022-11-12T15:47:35;18.45;;;11.10;;
21152;SDS011;10734;44.792;20.482;2022-11-12T15:50:06;24.63;;;11.68;;
21152;SDS011;10734;44.792;20.482;2022-11-12T15:52:39;21.67;;;11.00;;
21152;SDS011;10734;44.792;20.482;2022-11-12T15:55:06;24.92;;;12.50;;
21152;SDS011;10734;44.792;20.482;2022-11-12T15:57:37;28.95;;;13.95;;
21152;SDS011;10734;44.792;20.482;2022-11-12T16:00:14;31.35;;;17.80;;
21152;SDS011;10734;44.792;20.482;2022-11-12T16:02:42;53.42;;;30.75;;
21152;SDS011;10734;44.792;20.482;2022-11-12T16:05:15;46.25;;;28.50;;
21152;SDS011;10734;44.792;20.482;2022-11-12T16:07:43;34.17;;;21.60;;
21152;SDS011;10734;44.792;20.482;2022-11-12T16:10:13;37.65;;;18.60;;
21152;SDS011;10734;44.792;20.482;2022-11-12T16:12:40;34.45;;;17.80;;
21152;SDS011;10734;44.792;20.482;2022-11-12T16:15:13;38.55;;;16.63;;
21152;SDS011;10734;44.792;20.482;2022-11-12T16:17:40;40.03;;;17.08;;
21152;SDS011;10734;44.792;20.482;2022-11-12T16:20:17;33.42;;;14.63;;
21152;SDS011;10734;44.792;20.482;2022-11-12T16:22:44;23.35;;;12.60;;
21152;SDS011;10734;44.792;20.482;2022-11-12T16:25:10;19.23;;;11.65;;
21152;SDS011;10734;44.792;20.482;2022-11-12T16:27:37;30.48;;;12.30;;
21152;SDS011;10734;44.792;20.482;2022-11-12T16:30:05;26.50;;;13.13;;
21152;SDS011;10734;44.792;20.482;2022-11-12T16:32:32;30.63;;;14.70;;
21152;SDS011;10734;44.792;20.482;2022-11-12T16:34:58;25.42;;;13.93;;
21152;SDS011;10734;44.792;20.482;2022-11-12T16:37:26;25.33;;;13.88;;
21152;SDS011;10734;44.792;20.482;2022-11-12T16:39:53;28.17;;;14.25;;
21152;SDS011;10734;44.792;20.482;2022-11-12T16:42:19;29.20;;;15.10;;
21152;SDS011;10734;44.792;20.482;2022-11-12T16:44:46;29.02;;;14.48;;
21152;SDS011;10734;44.792;20.482;2022-11-12T16:47:12;28.50;;;13.73;;
21152;SDS011;10734;44.792;20.482;2022-11-12T16:49:39;31.23;;;14.25;;